createdAt,value
2019-05-13T00:01:43.377Z,8.15
2019-05-13T00:04:14.257Z,8.27
2019-05-13T00:06:53.922Z,8.17
2019-05-13T00:09:19.561Z,8.23
2019-05-13T00:11:50.862Z,8.09
2019-05-13T00:14:24.896Z,8.06
2019-05-13T00:16:56.098Z,7.93
2019-05-13T00:19:27.490Z,7.97
2019-05-13T00:21:59.226Z,8.02
2019-05-13T00:24:30.929Z,8.04
2019-05-13T00:27:03.924Z,7.91
2019-05-13T00:29:35.770Z,7.91
2019-05-13T00:32:07.151Z,7.79
2019-05-13T00:34:38.365Z,7.88
2019-05-13T00:37:11.781Z,7.79
2019-05-13T00:39:44.209Z,7.76
2019-05-13T00:42:18.994Z,7.70
2019-05-13T00:44:50.310Z,7.81
2019-05-13T00:47:23.657Z,7.82
2019-05-13T00:49:54.550Z,7.72
2019-05-13T00:52:25.716Z,7.84
2019-05-13T00:54:57.449Z,7.87
2019-05-13T00:57:28.669Z,7.83
2019-05-13T01:00:03.509Z,7.76
2019-05-13T01:02:35.133Z,7.93
2019-05-13T01:05:06.471Z,7.75
2019-05-13T01:07:37.821Z,7.74
2019-05-13T01:10:10.288Z,7.64
2019-05-13T01:12:43.801Z,7.70
2019-05-13T01:15:16.377Z,7.72
2019-05-13T01:17:50.083Z,7.80
2019-05-13T01:20:23.500Z,7.81
2019-05-13T01:22:54.798Z,7.87
2019-05-13T01:25:26.120Z,7.93
2019-05-13T01:27:57.362Z,7.97
2019-05-13T01:30:29.978Z,8.07
2019-05-13T01:33:01.525Z,7.88
2019-05-13T01:35:34.166Z,7.84
2019-05-13T01:38:05.881Z,7.90
2019-05-13T01:40:37.204Z,8.05
2019-05-13T01:43:08.389Z,8.07
2019-05-13T01:45:40.106Z,8.18
2019-05-13T01:48:13.874Z,8.11
2019-05-13T01:50:44.657Z,8.19
2019-05-13T01:53:15.987Z,8.24
2019-05-13T01:55:49.560Z,8.24
2019-05-13T01:58:23.807Z,8.09
2019-05-13T02:00:55.529Z,8.13
2019-05-13T02:03:26.913Z,8.03
2019-05-13T02:05:58.936Z,7.89
2019-05-13T02:08:30.764Z,7.64
2019-05-13T02:11:04.609Z,7.54
2019-05-13T02:13:36.067Z,7.48
2019-05-13T02:16:07.304Z,7.74
2019-05-13T02:18:38.529Z,7.76
2019-05-13T02:21:09.769Z,7.76
2019-05-13T02:23:41.410Z,7.56
2019-05-13T02:26:13.587Z,7.55
2019-05-13T02:28:44.967Z,7.39
2019-05-13T02:31:25.827Z,7.48
2019-05-13T02:33:52.919Z,7.50
2019-05-13T02:36:25.387Z,7.54
2019-05-13T02:39:02.268Z,7.58
2019-05-13T02:41:34.131Z,7.48
2019-05-13T02:44:06.123Z,7.50
2019-05-13T02:46:37.361Z,7.52
2019-05-13T02:49:08.555Z,7.41
2019-05-13T02:51:42.994Z,7.40
2019-05-13T02:54:12.848Z,7.38
2019-05-13T02:56:44.115Z,7.39
2019-05-13T02:59:15.306Z,7.35
2019-05-13T03:01:46.692Z,7.28
2019-05-13T03:04:18.667Z,7.20
2019-05-13T03:06:52.117Z,7.29
2019-05-13T03:09:23.379Z,7.40
2019-05-13T03:11:54.628Z,7.23
2019-05-13T03:14:25.748Z,7.34
2019-05-13T03:17:12.850Z,7.30
2019-05-13T03:19:43.545Z,7.31
2019-05-13T03:22:14.919Z,7.26
2019-05-13T03:24:46.165Z,7.28
2019-05-13T03:27:20.522Z,7.29
2019-05-13T03:29:54.722Z,7.27
2019-05-13T03:32:34.423Z,7.27
2019-05-13T03:35:00.837Z,7.26
2019-05-13T03:37:34.795Z,7.31
2019-05-13T03:40:05.722Z,7.29
2019-05-13T03:42:42.268Z,7.38
2019-05-13T03:45:13.064Z,7.43
2019-05-13T03:47:46.306Z,7.40
2019-05-13T03:50:17.611Z,7.43
2019-05-13T03:52:52.263Z,7.47
2019-05-13T03:55:23.329Z,7.41
2019-05-13T03:57:55.354Z,7.50
2019-05-13T04:00:26.665Z,7.37
2019-05-13T04:03:02.935Z,7.32
2019-05-13T04:05:52.736Z,7.35
2019-05-13T04:08:24.289Z,7.44
2019-05-13T04:10:56.424Z,7.45
2019-05-13T04:13:28.110Z,7.49
2019-05-13T04:15:59.354Z,7.47
2019-05-13T04:18:31.982Z,7.63
2019-05-13T04:21:03.657Z,7.61
2019-05-13T04:23:35.488Z,7.68
2019-05-13T04:26:07.156Z,7.60
2019-05-13T04:28:38.400Z,7.57
2019-05-13T04:31:09.562Z,7.64
2019-05-13T04:33:42.630Z,7.49
2019-05-13T04:36:14.233Z,7.74
2019-05-13T04:38:46.610Z,7.82
2019-05-13T04:41:17.850Z,7.73
2019-05-13T04:43:49.388Z,7.82
2019-05-13T04:46:22.893Z,7.57
2019-05-13T04:48:53.673Z,7.79
2019-05-13T04:51:25.067Z,7.85
2019-05-13T04:53:57.459Z,7.71
2019-05-13T04:56:28.804Z,7.90
2019-05-13T04:59:02.978Z,7.78
2019-05-13T05:02:05.512Z,7.89
2019-05-13T05:05:08.931Z,7.69
2019-05-13T05:08:32.871Z,7.83
2019-05-13T05:11:32.569Z,7.94
2019-05-13T05:14:38.052Z,7.85
2019-05-13T05:17:58.147Z,7.99
2019-05-13T05:20:41.633Z,7.81
2019-05-13T05:23:39.405Z,8.09
2019-05-13T05:26:47.449Z,8.05
2019-05-13T05:29:46.873Z,8.12
2019-05-13T05:32:51.852Z,8.22
2019-05-13T05:35:52.145Z,8.22
2019-05-13T05:38:46.118Z,8.26
2019-05-13T05:41:21.472Z,8.26
2019-05-13T05:43:56.314Z,8.25
2019-05-13T05:46:32.225Z,8.26
2019-05-13T05:49:07.934Z,8.38
2019-05-13T05:51:41.898Z,8.37
2019-05-13T05:54:14.830Z,8.46
2019-05-13T05:56:48.050Z,8.61
2019-05-13T05:59:22.240Z,8.60
2019-05-13T06:01:56.031Z,8.69
2019-05-13T06:04:32.297Z,8.70
2019-05-13T06:07:04.905Z,8.87
2019-05-13T06:09:36.290Z,8.97
2019-05-13T06:12:07.594Z,8.89
2019-05-13T06:14:42.290Z,8.97
2019-05-13T06:17:14.872Z,9.20
2019-05-13T06:19:47.117Z,9.26
2019-05-13T06:22:18.935Z,9.12
2019-05-13T06:24:52.298Z,9.40
2019-05-13T06:27:23.692Z,9.61
2019-05-13T06:32:32.127Z,9.71
2019-05-13T06:35:03.628Z,9.71
2019-05-13T06:37:34.960Z,10.02
2019-05-13T06:40:07.116Z,9.84
2019-05-13T06:42:38.413Z,9.97
2019-05-13T06:45:12.219Z,10.56
2019-05-13T06:47:42.950Z,10.73
2019-05-13T06:50:14.524Z,11.23
2019-05-13T06:52:46.774Z,11.61
2019-05-13T06:55:18.178Z,11.65
2019-05-13T06:57:51.715Z,11.83
2019-05-13T07:00:23.459Z,11.88
2019-05-13T07:03:02.314Z,12.20
2019-05-13T07:05:33.812Z,12.20
2019-05-13T07:08:05.709Z,12.30
2019-05-13T07:10:37.076Z,12.22
2019-05-13T07:13:11.458Z,12.17
2019-05-13T07:15:45.696Z,12.33
2019-05-13T07:18:17.233Z,12.27
2019-05-13T07:20:49.534Z,12.26
2019-05-13T07:23:22.377Z,12.85
2019-05-13T07:25:54.894Z,13.28
2019-05-13T07:28:26.282Z,12.83
2019-05-13T07:31:02.175Z,12.93
2019-05-13T07:33:35.067Z,13.02
2019-05-13T07:36:08.612Z,13.19
2019-05-13T07:38:41.611Z,13.37
2019-05-13T07:41:16.021Z,12.92
2019-05-13T07:43:48.299Z,13.52
2019-05-13T07:46:22.002Z,13.23
2019-05-13T07:48:53.164Z,13.47
2019-05-13T07:51:24.482Z,13.59
2019-05-13T07:53:55.734Z,13.33
2019-05-13T07:56:28.670Z,13.17
2019-05-13T07:59:01.738Z,13.66
2019-05-13T08:01:34.327Z,13.49
2019-05-13T08:04:05.624Z,13.73
2019-05-13T08:06:37.062Z,13.89
2019-05-13T08:09:12.828Z,14.17
2019-05-13T08:12:02.268Z,14.24
2019-05-13T08:14:21.807Z,13.97
2019-05-13T08:16:53.213Z,14.02
2019-05-13T08:19:24.969Z,14.41
2019-05-13T08:21:56.313Z,14.41
2019-05-13T08:24:27.699Z,14.55
2019-05-13T08:27:02.041Z,14.28
2019-05-13T08:29:33.067Z,14.38
2019-05-13T08:32:04.946Z,14.50
2019-05-13T08:34:37.186Z,14.45
2019-05-13T08:37:08.506Z,14.35
2019-05-13T08:39:41.473Z,14.71
2019-05-13T08:42:19.441Z,14.45
2019-05-13T08:44:46.478Z,14.26
2019-05-13T08:47:18.054Z,14.17
2019-05-13T08:49:51.840Z,14.43
2019-05-13T08:52:23.070Z,14.08
2019-05-13T08:54:54.536Z,14.38
2019-05-13T08:57:25.749Z,14.55
2019-05-13T08:59:57.170Z,14.60
2019-05-13T09:02:32.108Z,14.85
2019-05-13T09:05:12.064Z,14.74
2019-05-13T09:07:43.556Z,13.98
2019-05-13T09:10:15.178Z,14.52
2019-05-13T09:12:46.794Z,14.58
2019-05-13T09:15:18.451Z,14.58
2019-05-13T09:17:51.727Z,14.79
2019-05-13T09:20:22.831Z,15.09
2019-05-13T09:22:54.050Z,14.64
2019-05-13T09:25:25.701Z,14.67
2019-05-13T09:27:57.511Z,14.73
2019-05-13T09:30:31.476Z,14.39
2019-05-13T09:33:02.131Z,14.58
2019-05-13T09:35:34.888Z,14.44
2019-05-13T09:38:06.689Z,14.31
2019-05-13T09:40:39.069Z,14.35
2019-05-13T09:43:11.635Z,14.50
2019-05-13T09:45:43.258Z,14.62
2019-05-13T09:48:16.638Z,14.70
2019-05-13T09:50:51.503Z,14.75
2019-05-13T09:53:22.578Z,14.77
2019-05-13T09:55:55.244Z,14.80
2019-05-13T09:58:29.749Z,14.46
2019-05-13T10:00:59.816Z,14.94
2019-05-13T10:03:33.155Z,14.88
2019-05-13T10:06:04.024Z,14.84
2019-05-13T10:08:35.721Z,14.96
2019-05-13T10:11:06.988Z,14.62
2019-05-13T10:13:38.397Z,14.56
2019-05-13T10:16:12.347Z,14.78
2019-05-13T10:18:43.283Z,14.73
2019-05-13T10:21:14.716Z,14.69
2019-05-13T10:23:46.068Z,14.82
2019-05-13T10:26:17.243Z,14.72
2019-05-13T10:28:49.376Z,14.63
2019-05-13T10:31:22.038Z,14.37
2019-05-13T10:33:53.716Z,14.31
2019-05-13T10:36:25.021Z,14.66
2019-05-13T10:38:57.714Z,14.76
2019-05-13T10:41:29.208Z,14.63
2019-05-13T10:44:03.109Z,14.55
2019-05-13T10:46:34.896Z,14.37
2019-05-13T10:49:06.391Z,14.36
2019-05-13T10:51:37.644Z,14.52
2019-05-13T10:54:09.841Z,14.44
2019-05-13T10:56:43.072Z,14.45
2019-05-13T10:59:13.995Z,14.67
2019-05-13T11:01:45.235Z,14.67
2019-05-13T11:04:17.318Z,14.69
2019-05-13T11:08:45.889Z,15.08
2019-05-13T11:11:17.306Z,14.90
2019-05-13T11:13:56.438Z,14.77
2019-05-13T11:16:22.541Z,14.72
2019-05-13T11:18:55.047Z,14.58
2019-05-13T11:21:26.421Z,14.63
2019-05-13T11:23:58.756Z,14.65
2019-05-13T11:26:35.923Z,14.24
2019-05-13T11:29:03.031Z,14.36
2019-05-13T11:31:34.721Z,14.24
2019-05-13T11:34:06.046Z,14.31
2019-05-13T11:36:37.602Z,14.29
2019-05-13T11:39:12.945Z,14.48
2019-05-13T11:41:43.046Z,14.40
2019-05-13T11:44:17.153Z,14.45
2019-05-13T11:46:48.758Z,14.51
2019-05-13T11:49:20.156Z,14.49
2019-05-13T11:51:52.432Z,14.59
2019-05-13T11:54:24.190Z,14.77
2019-05-13T11:57:01.794Z,14.64
2019-05-13T11:59:32.965Z,14.38
2019-05-13T12:02:05.067Z,14.52
2019-05-13T12:04:36.769Z,14.77
2019-05-13T12:07:08.646Z,15.07
2019-05-13T12:09:39.924Z,15.05
2019-05-13T12:12:13.050Z,14.86
2019-05-13T12:15:16.209Z,14.92
2019-05-13T12:17:18.952Z,15.04
2019-05-13T12:19:54.011Z,14.99
2019-05-13T12:22:23.726Z,14.70
2019-05-13T12:24:55.260Z,14.71
2019-05-13T12:27:26.588Z,14.89
2019-05-13T12:29:57.900Z,14.81
2019-05-13T12:32:32.091Z,14.89
2019-05-13T12:35:03.608Z,14.71
2019-05-13T12:37:36.803Z,14.66
2019-05-13T12:40:08.646Z,14.75
2019-05-13T12:42:46.254Z,14.64
2019-05-13T12:45:14.531Z,14.82
2019-05-13T12:47:45.949Z,15.08
2019-05-13T12:50:17.818Z,14.96
2019-05-13T12:52:51.456Z,14.97
2019-05-13T12:55:22.552Z,14.99
2019-05-13T12:57:53.922Z,14.92
2019-05-13T13:00:25.161Z,15.03
2019-05-13T13:02:56.791Z,14.91
2019-05-13T13:05:33.277Z,14.46
2019-05-13T13:08:18.533Z,14.48
2019-05-13T13:10:34.733Z,14.39
2019-05-13T13:13:06.387Z,14.43
2019-05-13T13:15:42.220Z,14.37
2019-05-13T13:18:14.280Z,14.23
2019-05-13T13:20:44.173Z,14.45
2019-05-13T13:23:15.675Z,14.35
2019-05-13T13:26:13.719Z,14.19
2019-05-13T13:28:38.941Z,14.24
2019-05-13T13:31:13.280Z,14.30
2019-05-13T13:33:45.426Z,14.25
2019-05-13T13:36:17.717Z,14.03
2019-05-13T13:38:48.940Z,14.00
2019-05-13T13:41:22.688Z,13.94
2019-05-13T13:43:54.077Z,13.83
2019-05-13T13:46:37.004Z,13.88
2019-05-13T13:48:58.837Z,13.94
2019-05-13T13:51:34.066Z,14.12
2019-05-13T13:54:05.228Z,14.13
2019-05-13T13:56:36.782Z,14.29
2019-05-13T13:59:08.134Z,14.39
2019-05-13T14:01:39.948Z,14.52
2019-05-13T14:04:16.537Z,14.31
2019-05-13T14:09:23.091Z,14.06
2019-05-13T14:11:55.035Z,14.19
2019-05-13T14:14:26.449Z,14.36
2019-05-13T14:16:57.772Z,14.52
2019-05-13T14:19:29.089Z,14.75
2019-05-13T14:22:01.696Z,14.88
2019-05-13T14:27:24.380Z,14.55
2019-05-13T14:29:56.758Z,14.40
2019-05-13T14:32:32.115Z,14.54
2019-05-13T14:35:08.556Z,14.31
2019-05-13T14:37:38.852Z,14.38
2019-05-13T14:40:12.151Z,14.37
2019-05-13T14:42:47.462Z,14.37
2019-05-13T14:45:21.365Z,14.30
2019-05-13T14:47:52.378Z,14.20
2019-05-13T14:50:43.139Z,14.40
2019-05-13T14:53:15.053Z,14.28
2019-05-13T14:55:46.944Z,14.13
2019-05-13T14:58:21.747Z,13.98
2019-05-13T15:01:10.370Z,14.01
2019-05-13T15:03:25.307Z,14.07
2019-05-13T15:05:57.740Z,14.10
2019-05-13T15:08:32.517Z,13.96
2019-05-13T15:11:02.973Z,14.20
2019-05-13T15:13:34.833Z,14.31
2019-05-13T15:16:06.357Z,14.48
2019-05-13T15:18:37.650Z,14.58
2019-05-13T15:21:08.910Z,14.79
2019-05-13T15:23:42.296Z,14.94
2019-05-13T15:26:13.025Z,14.76
2019-05-13T15:28:44.364Z,14.63
2019-05-13T15:31:16.165Z,14.55
2019-05-13T15:33:48.499Z,14.40
2019-05-13T15:36:19.722Z,14.46
2019-05-13T15:38:52.026Z,14.42
2019-05-13T15:42:02.812Z,14.48
2019-05-13T15:44:34.292Z,14.38
2019-05-13T15:47:22.339Z,14.53
2019-05-13T15:49:39.529Z,14.53
2019-05-13T15:52:14.060Z,14.62
2019-05-13T15:54:47.491Z,14.61
2019-05-13T15:57:21.224Z,14.68
2019-05-13T15:59:52.362Z,14.70
2019-05-13T16:02:24.197Z,14.56
2019-05-13T16:05:01.162Z,14.48
2019-05-13T16:07:29.964Z,14.41
2019-05-13T16:10:02.100Z,14.55
2019-05-13T16:12:36.123Z,14.46
2019-05-13T16:15:12.401Z,14.44
2019-05-13T16:17:45.018Z,14.23
2019-05-13T16:20:17.702Z,14.20
2019-05-13T16:22:52.989Z,14.12
2019-05-13T16:25:27.289Z,14.16
2019-05-13T16:27:58.625Z,14.20
2019-05-13T16:30:32.095Z,14.36
2019-05-13T16:33:03.580Z,14.22
2019-05-13T16:35:35.383Z,14.23
2019-05-13T16:38:08.017Z,14.12
2019-05-13T16:40:39.423Z,14.21
2019-05-13T16:43:12.807Z,14.23
2019-05-13T16:45:43.834Z,14.16
2019-05-13T16:48:15.167Z,14.11
2019-05-13T16:50:46.549Z,14.08
2019-05-13T16:53:25.198Z,14.02
2019-05-13T16:55:53.796Z,13.92
2019-05-13T16:58:26.046Z,13.77
2019-05-13T17:00:58.358Z,13.80
2019-05-13T17:03:31.922Z,13.86
2019-05-13T17:06:03.240Z,13.88
2019-05-13T17:08:37.135Z,13.81
2019-05-13T17:11:11.864Z,13.89
2019-05-13T17:13:42.981Z,13.74
2019-05-13T17:16:14.281Z,13.77
2019-05-13T17:18:45.705Z,13.80
2019-05-13T17:21:17.053Z,13.68
2019-05-13T17:23:48.491Z,13.82
2019-05-13T17:26:21.979Z,13.71
2019-05-13T17:28:53.459Z,13.58
2019-05-13T17:31:32.533Z,13.50
2019-05-13T17:34:06.954Z,13.61
2019-05-13T17:36:38.209Z,13.62
2019-05-13T17:39:12.583Z,13.52
2019-05-13T17:41:43.320Z,13.54
2019-05-13T17:44:14.851Z,13.50
2019-05-13T17:46:47.947Z,13.51
2019-05-13T17:49:19.243Z,13.56
2019-05-13T17:51:51.657Z,13.60
2019-05-13T17:54:24.937Z,13.63
2019-05-13T17:56:56.717Z,13.49
2019-05-13T17:59:27.939Z,13.40
2019-05-13T18:01:59.164Z,13.38
2019-05-13T18:04:31.406Z,13.42
2019-05-13T18:07:03.179Z,13.35
2019-05-13T18:09:34.631Z,13.21
2019-05-13T18:12:08.139Z,13.18
2019-05-13T18:14:41.197Z,13.13
2019-05-13T18:17:12.743Z,13.15
2019-05-13T18:19:43.986Z,13.12
2019-05-13T18:22:15.199Z,13.14
2019-05-13T18:24:46.731Z,13.03
2019-05-13T18:27:19.303Z,12.99
2019-05-13T18:29:51.326Z,12.97
2019-05-13T18:32:22.748Z,12.91
2019-05-13T18:34:54.096Z,12.82
2019-05-13T18:37:25.575Z,12.65
2019-05-13T18:39:56.789Z,12.65
2019-05-13T18:42:31.552Z,12.61
2019-05-13T18:45:02.529Z,12.53
2019-05-13T18:47:35.391Z,12.49
2019-05-13T18:50:11.852Z,12.40
2019-05-13T18:52:46.709Z,12.43
2019-05-13T18:55:18.226Z,12.42
2019-05-13T18:57:51.687Z,12.38
2019-05-13T19:00:23.268Z,12.40
2019-05-13T19:02:56.535Z,12.25
2019-05-13T19:05:27.784Z,12.23
2019-05-13T19:08:01.686Z,12.25
2019-05-13T19:10:32.477Z,12.21
2019-05-13T19:13:04.922Z,12.17
2019-05-13T19:15:36.456Z,12.15
2019-05-13T19:18:08.170Z,12.09
2019-05-13T19:20:41.759Z,12.08
2019-05-13T19:23:12.739Z,12.05
2019-05-13T19:25:44.493Z,11.98
2019-05-13T19:28:16.786Z,12.04
2019-05-13T19:30:48.010Z,11.93
2019-05-13T19:33:21.922Z,11.83
2019-05-13T19:35:52.685Z,11.80
2019-05-13T19:38:25.567Z,11.75
2019-05-13T19:41:01.612Z,11.80
2019-05-13T19:43:32.452Z,11.77
2019-05-13T19:46:03.807Z,11.75
2019-05-13T19:48:35.177Z,11.69
2019-05-13T19:51:06.597Z,11.59
2019-05-13T19:53:38.008Z,11.50
2019-05-13T19:56:11.744Z,11.51
2019-05-13T19:58:42.457Z,11.43
2019-05-13T20:01:15.302Z,11.37
2019-05-13T20:03:47.061Z,11.34
2019-05-13T20:06:18.451Z,11.41
2019-05-13T20:08:51.742Z,11.41
2019-05-13T20:11:22.866Z,11.33
2019-05-13T20:13:54.298Z,11.20
2019-05-13T20:16:25.708Z,11.22
2019-05-13T20:18:56.996Z,11.09
2019-05-13T20:21:28.343Z,11.00
2019-05-13T20:23:59.960Z,10.98
2019-05-13T20:26:32.228Z,10.88
2019-05-13T20:29:04.229Z,10.81
2019-05-13T20:31:35.756Z,10.82
2019-05-13T20:34:17.738Z,10.73
2019-05-13T20:36:51.594Z,10.72
2019-05-13T20:39:25.291Z,10.70
2019-05-13T20:42:02.379Z,10.70
2019-05-13T20:44:33.626Z,10.72
2019-05-13T20:47:04.857Z,10.59
2019-05-13T20:49:36.138Z,10.63
2019-05-13T20:52:07.309Z,10.56
2019-05-13T20:54:38.552Z,10.57
2019-05-13T20:57:09.694Z,10.43
2019-05-13T20:59:41.489Z,10.42
2019-05-13T21:02:12.944Z,10.49
2019-05-13T21:04:44.153Z,10.48
2019-05-13T21:07:17.376Z,10.50
2019-05-13T21:09:51.129Z,10.53
2019-05-13T21:12:23.098Z,10.57
2019-05-13T21:14:54.426Z,10.62
2019-05-13T21:17:26.592Z,10.59
2019-05-13T21:20:01.056Z,10.54
2019-05-13T21:22:31.716Z,10.52
2019-05-13T21:25:04.705Z,10.54
2019-05-13T21:27:36.564Z,10.43
2019-05-13T21:30:09.185Z,10.44
2019-05-13T21:32:40.806Z,10.42
2019-05-13T21:35:12.644Z,10.31
2019-05-13T21:37:44.090Z,10.28
2019-05-13T21:40:18.803Z,10.29
2019-05-13T21:42:52.455Z,10.26
2019-05-13T21:45:27.072Z,10.23
2019-05-13T21:47:59.089Z,10.25
2019-05-13T21:50:36.779Z,10.24
2019-05-13T21:53:03.702Z,10.16
2019-05-13T21:55:35.276Z,10.16
2019-05-13T21:58:06.493Z,10.11
2019-05-13T22:00:47.884Z,10.12
2019-05-13T22:03:19.980Z,10.10
2019-05-13T22:05:51.677Z,10.08
2019-05-13T22:08:23.417Z,10.15
2019-05-13T22:10:54.736Z,10.12
2019-05-13T22:13:27.230Z,10.07
2019-05-13T22:16:01.635Z,10.04
2019-05-13T22:18:32.406Z,10.03
2019-05-13T22:21:04.165Z,10.01
2019-05-13T22:23:36.063Z,10.08
2019-05-13T22:26:07.858Z,10.09
2019-05-13T22:28:39.175Z,10.06
2019-05-13T22:31:11.657Z,10.01
2019-05-13T22:33:46.127Z,9.93
2019-05-13T22:36:17.472Z,9.93
2019-05-13T22:38:48.718Z,9.94
2019-05-13T22:41:22.220Z,9.98
2019-05-13T22:43:58.483Z,9.94
2019-05-13T22:48:04.549Z,9.94
2019-05-13T22:50:36.535Z,9.82
2019-05-13T22:53:09.233Z,9.85
2019-05-13T22:55:41.988Z,9.83
2019-05-13T22:58:14.201Z,9.74
2019-05-13T23:00:48.200Z,9.62
2019-05-13T23:03:20.748Z,9.54
2019-05-13T23:05:52.367Z,9.44
2019-05-13T23:08:24.189Z,9.49
2019-05-13T23:10:56.998Z,9.52
2019-05-13T23:13:28.760Z,9.45
2019-05-13T23:16:02.438Z,9.44
2019-05-13T23:18:33.503Z,9.40
2019-05-13T23:21:04.880Z,9.38
2019-05-13T23:23:36.203Z,9.32
2019-05-13T23:26:07.892Z,9.36
2019-05-13T23:28:41.441Z,9.27
2019-05-13T23:31:16.956Z,9.20
2019-05-13T23:33:48.507Z,9.19
2019-05-13T23:36:21.096Z,9.15
2019-05-13T23:38:52.454Z,9.17
2019-05-13T23:41:24.098Z,9.17
2019-05-13T23:43:56.396Z,9.17
2019-05-13T23:46:27.646Z,9.21
2019-05-13T23:49:01.262Z,9.16
2019-05-13T23:51:36.465Z,9.13
2019-05-13T23:54:12.104Z,9.17
2019-05-13T23:56:43.199Z,9.23
2019-05-13T23:59:14.689Z,9.17
